Time;durP1;ratioP1;P1;durP2;ratioP2;P2;SDS_P1;SDS_P2;PMS_P1;PMS_P2;Temp;Humidity;BMP_temperature;BMP_pressure;BME280_temperature;BME280_humidity;BME280_pressure;Samples;Min_cycle;Max_cycle;Signal;HPM_P1;HPM_P2
2023/09/26 00:00:21;;;;;;;9.30;5.97;;;;;;;;;;5104744;28;20471;-60
2023/09/26 00:02:48;;;;;;;11.70;6.25;;;;;;;;;;5107910;28;20027;-60
2023/09/26 00:05:14;;;;;;;10.02;6.93;;;;;;;;;;5109656;28;20032;-60
2023/09/26 00:07:41;;;;;;;10.43;7.40;;;;;;;;;;5090848;28;20043;-60
2023/09/26 00:10:09;;;;;;;9.05;6.30;;;;;;;;;;5108024;28;20035;-60
2023/09/26 00:12:35;;;;;;;9.13;6.63;;;;;;;;;;5109219;28;20031;-61
2023/09/26 00:15:01;;;;;;;9.77;6.75;;;;;;;;;;5107533;28;20051;-61
2023/09/26 00:17:27;;;;;;;10.38;6.30;;;;;;;;;;5109503;28;20130;-61
2023/09/26 00:19:53;;;;;;;9.85;6.60;;;;;;;;;;5109592;28;20038;-61
2023/09/26 00:22:20;;;;;;;9.27;6.32;;;;;;;;;;5107380;28;20066;-62
2023/09/26 00:24:46;;;;;;;10.00;6.50;;;;;;;;;;5091156;28;20055;-61
2023/09/26 00:27:13;;;;;;;12.60;7.68;;;;;;;;;;5092977;28;20047;-61
2023/09/26 00:29:40;;;;;;;9.60;6.90;;;;;;;;;;5106494;28;20067;-61
2023/09/26 00:32:06;;;;;;;9.85;6.38;;;;;;;;;;5091630;28;20039;-61
2023/09/26 00:34:33;;;;;;;14.00;7.45;;;;;;;;;;5108417;28;20062;-60
2023/09/26 00:36:59;;;;;;;11.77;7.28;;;;;;;;;;5091212;28;20039;-61
2023/09/26 00:39:25;;;;;;;10.25;7.05;;;;;;;;;;5108007;28;20040;-61
2023/09/26 00:41:51;;;;;;;11.02;7.30;;;;;;;;;;5108087;28;20023;-61
2023/09/26 00:44:17;;;;;;;10.88;7.22;;;;;;;;;;5107284;28;20052;-61
2023/09/26 00:46:45;;;;;;;11.27;7.68;;;;;;;;;;5090144;28;20031;-61
2023/09/26 00:49:12;;;;;;;11.77;7.63;;;;;;;;;;5110860;28;20038;-61
2023/09/26 00:51:38;;;;;;;13.63;7.75;;;;;;;;;;5090646;28;20031;-61
2023/09/26 00:54:07;;;;;;;11.38;7.72;;;;;;;;;;5090241;28;20023;-61
2023/09/26 00:56:33;;;;;;;13.02;8.23;;;;;;;;;;5087954;28;20028;-61
2023/09/26 00:59:00;;;;;;;13.80;8.88;;;;;;;;;;5090327;28;20078;-61
2023/09/26 01:01:30;;;;;;;13.35;8.80;;;;;;;;;;5087056;28;20055;-61
2023/09/26 01:03:57;;;;;;;12.85;8.02;;;;;;;;;;5089039;28;20526;-61
2023/09/26 01:06:23;;;;;;;14.20;7.95;;;;;;;;;;5089927;28;20552;-61
2023/09/26 01:08:50;;;;;;;13.93;8.57;;;;;;;;;;5089773;28;20043;-61
2023/09/26 01:11:17;;;;;;;14.98;8.77;;;;;;;;;;5085800;28;20028;-61
2023/09/26 01:13:45;;;;;;;19.90;9.50;;;;;;;;;;5087914;28;20430;-61
2023/09/26 01:16:15;;;;;;;16.17;8.50;;;;;;;;;;5089654;28;20129;-61
2023/09/26 01:18:41;;;;;;;15.23;8.55;;;;;;;;;;5089013;28;20043;-61
2023/09/26 01:21:08;;;;;;;14.75;8.00;;;;;;;;;;5084712;28;20028;-60
2023/09/26 01:23:36;;;;;;;16.92;8.90;;;;;;;;;;5106634;28;20474;-61
2023/09/26 01:26:02;;;;;;;16.88;9.07;;;;;;;;;;5108959;28;20183;-61
2023/09/26 01:28:28;;;;;;;15.20;9.23;;;;;;;;;;5089585;28;20446;-61
2023/09/26 01:30:54;;;;;;;16.77;9.80;;;;;;;;;;5075613;28;20032;-60
2023/09/26 01:33:21;;;;;;;18.13;8.85;;;;;;;;;;5088352;28;20027;-60
2023/09/26 01:35:50;;;;;;;13.98;8.77;;;;;;;;;;5109818;28;20035;-61
2023/09/26 01:38:21;;;;;;;17.20;9.95;;;;;;;;;;5086069;28;20046;-61
2023/09/26 01:40:48;;;;;;;18.10;8.88;;;;;;;;;;5088794;28;20039;-60
2023/09/26 01:43:14;;;;;;;14.82;8.60;;;;;;;;;;5087596;28;20047;-60
2023/09/26 01:45:40;;;;;;;15.90;9.77;;;;;;;;;;5105489;28;20044;-60
2023/09/26 01:48:06;;;;;;;17.27;8.82;;;;;;;;;;5089634;28;20074;-61
2023/09/26 01:50:34;;;;;;;15.60;9.32;;;;;;;;;;5107975;28;20042;-60
2023/09/26 01:53:01;;;;;;;16.73;9.02;;;;;;;;;;5107461;28;20595;-60
2023/09/26 01:55:27;;;;;;;19.52;9.80;;;;;;;;;;5105953;28;20038;-60
2023/09/26 01:57:53;;;;;;;16.35;9.32;;;;;;;;;;5089130;28;20402;-61
2023/09/26 02:00:20;;;;;;;14.57;8.60;;;;;;;;;;5085879;28;20054;-59
2023/09/26 02:02:48;;;;;;;17.17;8.90;;;;;;;;;;5088518;28;20051;-60
2023/09/26 02:05:21;;;;;;;19.27;9.82;;;;;;;;;;5088167;28;20048;-60
2023/09/26 02:07:48;;;;;;;21.75;10.55;;;;;;;;;;5089266;28;20054;-59
2023/09/26 02:10:17;;;;;;;17.80;9.65;;;;;;;;;;5105119;28;20044;-60
2023/09/26 02:12:45;;;;;;;16.33;9.65;;;;;;;;;;5086360;28;20039;-59
2023/09/26 02:15:13;;;;;;;16.85;9.95;;;;;;;;;;5082258;28;20051;-60
2023/09/26 02:17:41;;;;;;;21.48;9.85;;;;;;;;;;5082136;28;20062;-60
2023/09/26 02:20:12;;;;;;;18.75;10.27;;;;;;;;;;5106006;28;20036;-59
2023/09/26 02:22:41;;;;;;;19.20;9.95;;;;;;;;;;5090308;28;20048;-60
2023/09/26 02:25:09;;;;;;;18.30;10.20;;;;;;;;;;5103441;28;20044;-61
2023/09/26 02:27:35;;;;;;;22.27;10.45;;;;;;;;;;5089553;28;20486;-61
2023/09/26 02:30:01;;;;;;;17.33;9.93;;;;;;;;;;5107362;28;20039;-61
2023/09/26 02:32:28;;;;;;;18.00;9.40;;;;;;;;;;5084035;28;20035;-61
2023/09/26 02:34:54;;;;;;;21.33;10.43;;;;;;;;;;5105629;28;20511;-61
2023/09/26 02:37:20;;;;;;;17.00;9.20;;;;;;;;;;5085492;28;20457;-61
2023/09/26 02:39:46;;;;;;;19.63;10.27;;;;;;;;;;5070372;28;20044;-61
2023/09/26 02:42:13;;;;;;;20.40;10.85;;;;;;;;;;5108275;28;20039;-61
2023/09/26 02:44:39;;;;;;;20.02;10.73;;;;;;;;;;5106358;28;20079;-61
2023/09/26 02:47:06;;;;;;;17.98;9.77;;;;;;;;;;5108544;28;20038;-61
2023/09/26 02:49:32;;;;;;;21.73;10.68;;;;;;;;;;5084275;28;20102;-60
2023/09/26 02:51:58;;;;;;;20.80;10.65;;;;;;;;;;5103714;28;20032;-59
2023/09/26 02:54:26;;;;;;;21.83;10.95;;;;;;;;;;5104987;28;20054;-59
2023/09/26 02:56:52;;;;;;;22.48;9.82;;;;;;;;;;5107114;28;20035;-60
2023/09/26 02:59:18;;;;;;;21.08;10.52;;;;;;;;;;5106845;28;20043;-61
2023/09/26 03:01:44;;;;;;;25.17;10.95;;;;;;;;;;5106762;28;20054;-60
2023/09/26 03:04:10;;;;;;;23.67;11.45;;;;;;;;;;5085507;28;20050;-60
2023/09/26 03:06:36;;;;;;;20.67;10.18;;;;;;;;;;5067841;28;20044;-57
2023/09/26 03:09:02;;;;;;;19.40;10.90;;;;;;;;;;5104395;28;20066;-59
2023/09/26 03:11:29;;;;;;;22.30;10.90;;;;;;;;;;5105715;28;20059;-60
2023/09/26 03:13:55;;;;;;;25.50;11.77;;;;;;;;;;5081852;28;20043;-59
2023/09/26 03:16:22;;;;;;;25.23;12.25;;;;;;;;;;5068558;28;20042;-60
2023/09/26 03:18:54;;;;;;;25.13;11.48;;;;;;;;;;5088072;28;20040;-60
2023/09/26 03:21:21;;;;;;;22.75;11.23;;;;;;;;;;5079761;28;20048;-60
2023/09/26 03:23:47;;;;;;;24.45;11.80;;;;;;;;;;5106259;28;20054;-61
2023/09/26 03:26:14;;;;;;;23.20;11.27;;;;;;;;;;5090216;28;20043;-61
2023/09/26 03:28:41;;;;;;;23.33;10.43;;;;;;;;;;5091360;28;20043;-60
2023/09/26 03:31:11;;;;;;;23.50;11.10;;;;;;;;;;5072168;28;20043;-61
2023/09/26 03:33:37;;;;;;;23.25;10.80;;;;;;;;;;5090019;28;20040;-60
2023/09/26 03:36:04;;;;;;;26.35;11.55;;;;;;;;;;5092214;28;20409;-59
2023/09/26 03:38:31;;;;;;;22.60;11.30;;;;;;;;;;5110541;28;20031;-60
2023/09/26 03:41:01;;;;;;;27.60;12.98;;;;;;;;;;5111214;28;20043;-60
2023/09/26 03:43:28;;;;;;;26.23;11.18;;;;;;;;;;5109483;28;20491;-60
2023/09/26 03:46:01;;;;;;;24.25;11.48;;;;;;;;;;5091493;28;20036;-60
2023/09/26 03:48:28;;;;;;;25.27;12.15;;;;;;;;;;5107670;28;20070;-59
2023/09/26 03:50:54;;;;;;;22.17;10.90;;;;;;;;;;5107633;28;20055;-60
2023/09/26 03:53:20;;;;;;;28.05;12.52;;;;;;;;;;5109425;28;20031;-60
2023/09/26 03:55:55;;;;;;;25.48;12.00;;;;;;;;;;5108606;28;20061;-60
2023/09/26 03:58:22;;;;;;;27.95;11.60;;;;;;;;;;5108000;28;20044;-60
2023/09/26 04:00:48;;;;;;;24.65;11.43;;;;;;;;;;5110330;28;20043;-59
2023/09/26 04:03:14;;;;;;;27.00;11.88;;;;;;;;;;5109474;28;20032;-60
2023/09/26 04:05:44;;;;;;;25.55;11.93;;;;;;;;;;5109596;28;20024;-60
2023/09/26 04:08:10;;;;;;;25.30;12.38;;;;;;;;;;5108840;28;20379;-60
2023/09/26 04:10:37;;;;;;;30.05;12.70;;;;;;;;;;5107565;28;20055;-60
2023/09/26 04:13:03;;;;;;;28.48;13.85;;;;;;;;;;5091107;28;20031;-60
2023/09/26 04:15:30;;;;;;;26.77;12.93;;;;;;;;;;5089825;28;20434;-60
2023/09/26 04:17:56;;;;;;;30.25;12.75;;;;;;;;;;5110239;28;20043;-59
2023/09/26 04:20:23;;;;;;;29.90;13.30;;;;;;;;;;5110642;28;20047;-59
2023/09/26 04:22:49;;;;;;;28.33;13.38;;;;;;;;;;5111295;28;20042;-60
2023/09/26 04:25:15;;;;;;;25.70;12.13;;;;;;;;;;5110539;28;20028;-60
2023/09/26 04:27:42;;;;;;;28.88;13.55;;;;;;;;;;5108917;28;21024;-60
2023/09/26 04:30:09;;;;;;;37.72;15.45;;;;;;;;;;5104322;28;20422;-61
2023/09/26 04:32:35;;;;;;;29.67;12.88;;;;;;;;;;5109453;28;20027;-60
2023/09/26 04:35:02;;;;;;;29.67;12.75;;;;;;;;;;5108158;28;20043;-60
2023/09/26 04:37:28;;;;;;;29.17;12.63;;;;;;;;;;5111103;28;20034;-59
2023/09/26 04:39:54;;;;;;;32.28;12.57;;;;;;;;;;5093233;28;20398;-60
2023/09/26 04:42:20;;;;;;;32.13;14.07;;;;;;;;;;5091127;28;20035;-59
2023/09/26 04:44:46;;;;;;;29.42;13.80;;;;;;;;;;5108629;28;20038;-60
2023/09/26 04:47:13;;;;;;;37.47;14.40;;;;;;;;;;5091389;28;20032;-61
2023/09/26 04:49:39;;;;;;;33.42;14.57;;;;;;;;;;5108299;28;20486;-60
2023/09/26 04:52:05;;;;;;;35.47;14.25;;;;;;;;;;5103437;28;20051;-61
2023/09/26 04:54:31;;;;;;;30.48;13.68;;;;;;;;;;5109309;28;20209;-60
2023/09/26 04:56:57;;;;;;;33.10;14.50;;;;;;;;;;5108775;28;20044;-60
2023/09/26 04:59:24;;;;;;;29.08;13.90;;;;;;;;;;5107611;28;20036;-63
2023/09/26 05:01:50;;;;;;;31.33;13.88;;;;;;;;;;5109162;28;20027;-61
2023/09/26 05:04:17;;;;;;;461.33;103.20;;;;;;;;;;5107928;28;20059;-59
2023/09/26 05:06:43;;;;;;;385.02;88.65;;;;;;;;;;5108728;28;20058;-58
2023/09/26 05:09:09;;;;;;;40.67;16.73;;;;;;;;;;5107666;28;20032;-60
2023/09/26 05:11:35;;;;;;;35.97;13.43;;;;;;;;;;5105601;28;20092;-60
2023/09/26 05:14:01;;;;;;;29.50;14.27;;;;;;;;;;5088466;28;20042;-59
2023/09/26 05:16:27;;;;;;;34.47;15.13;;;;;;;;;;5108035;28;20042;-59
2023/09/26 05:18:53;;;;;;;39.38;14.75;;;;;;;;;;5092081;28;20079;-59
2023/09/26 05:21:21;;;;;;;32.63;14.38;;;;;;;;;;5105403;28;20043;-60
2023/09/26 05:23:47;;;;;;;34.78;14.85;;;;;;;;;;5105592;28;20040;-60
2023/09/26 05:26:13;;;;;;;37.28;16.52;;;;;;;;;;5110352;28;20399;-59
2023/09/26 05:28:40;;;;;;;40.58;17.75;;;;;;;;;;5107279;28;20028;-59
2023/09/26 05:31:07;;;;;;;40.55;17.48;;;;;;;;;;5107622;28;20028;-59
2023/09/26 05:33:33;;;;;;;44.70;18.75;;;;;;;;;;5109144;28;20051;-60
2023/09/26 05:35:59;;;;;;;39.78;18.65;;;;;;;;;;5110116;28;20039;-60
2023/09/26 05:38:25;;;;;;;39.10;17.38;;;;;;;;;;5108481;28;20039;-60
2023/09/26 05:40:52;;;;;;;39.42;17.98;;;;;;;;;;5107939;28;20027;-61
2023/09/26 05:43:18;;;;;;;43.20;17.20;;;;;;;;;;5106429;28;20035;-60
2023/09/26 05:45:48;;;;;;;53.00;21.48;;;;;;;;;;5107050;28;20438;-58
2023/09/26 05:48:14;;;;;;;;;;;;;;;;;;5106493;28;20062;-60
2023/09/26 05:50:40;;;;;;;47.40;19.42;;;;;;;;;;5106425;28;19915;-59
2023/09/26 05:53:06;;;;;;;42.78;19.25;;;;;;;;;;5101491;28;20042;-60
2023/09/26 05:55:32;;;;;;;47.17;18.48;;;;;;;;;;5105817;28;20117;-60
2023/09/26 05:57:58;;;;;;;44.45;19.10;;;;;;;;;;5107307;28;20050;-61
2023/09/26 06:00:24;;;;;;;47.08;19.67;;;;;;;;;;5105692;28;20107;-60
2023/09/26 06:02:52;;;;;;;44.00;19.40;;;;;;;;;;5084149;28;20470;-60
2023/09/26 06:05:19;;;;;;;47.95;20.38;;;;;;;;;;5107268;28;20497;-60
2023/09/26 06:07:45;;;;;;;65.60;25.80;;;;;;;;;;5106956;28;20059;-60
2023/09/26 06:10:12;;;;;;;70.15;25.52;;;;;;;;;;5103746;28;20052;-59
2023/09/26 06:12:38;;;;;;;80.28;27.60;;;;;;;;;;5105628;28;20032;-59
2023/09/26 06:15:11;;;;;;;46.65;19.85;;;;;;;;;;5096748;28;20058;-60
2023/09/26 06:17:40;;;;;;;38.78;17.05;;;;;;;;;;5108572;28;20364;-60
2023/09/26 06:20:08;;;;;;;50.67;19.17;;;;;;;;;;5103986;28;20449;-60
2023/09/26 06:22:34;;;;;;;73.32;28.17;;;;;;;;;;5107773;28;20031;-60
2023/09/26 06:25:02;;;;;;;65.05;22.65;;;;;;;;;;5106864;28;20047;-60
2023/09/26 06:27:28;;;;;;;63.15;22.15;;;;;;;;;;5101774;28;20028;-59
2023/09/26 06:29:54;;;;;;;57.47;21.45;;;;;;;;;;5106662;28;20031;-60
2023/09/26 06:32:20;;;;;;;55.13;22.02;;;;;;;;;;5108594;28;20049;-60
2023/09/26 06:34:47;;;;;;;55.25;20.55;;;;;;;;;;5106521;28;20059;-60
2023/09/26 06:37:13;;;;;;;50.00;19.10;;;;;;;;;;5083978;28;20048;-59
2023/09/26 06:39:40;;;;;;;51.80;18.52;;;;;;;;;;5105747;28;20042;-60
2023/09/26 06:42:06;;;;;;;48.25;18.73;;;;;;;;;;5100143;28;20056;-59
2023/09/26 06:44:33;;;;;;;59.03;22.73;;;;;;;;;;5080409;28;20048;-60
2023/09/26 06:46:59;;;;;;;55.58;22.42;;;;;;;;;;5088729;28;20031;-60
2023/09/26 06:49:26;;;;;;;55.88;21.75;;;;;;;;;;5105590;28;20043;-61
2023/09/26 06:51:52;;;;;;;56.28;22.33;;;;;;;;;;5104312;28;20047;-59
2023/09/26 06:54:18;;;;;;;63.22;23.98;;;;;;;;;;5104166;28;20044;-60
2023/09/26 06:56:44;;;;;;;69.55;24.27;;;;;;;;;;5106288;28;20037;-59
2023/09/26 06:59:10;;;;;;;62.80;23.85;;;;;;;;;;5087160;28;20027;-59
2023/09/26 07:01:36;;;;;;;64.15;23.55;;;;;;;;;;5106092;28;20039;-59
2023/09/26 07:04:04;;;;;;;59.58;22.38;;;;;;;;;;5105260;28;20042;-60
2023/09/26 07:06:30;;;;;;;71.30;25.10;;;;;;;;;;5106020;28;20039;-60
2023/09/26 07:08:58;;;;;;;57.08;23.13;;;;;;;;;;5105309;28;20039;-60
2023/09/26 07:11:25;;;;;;;55.58;21.10;;;;;;;;;;5101900;28;20035;-60
2023/09/26 07:13:51;;;;;;;53.08;20.77;;;;;;;;;;5105302;28;20035;-60
2023/09/26 07:16:17;;;;;;;47.30;21.17;;;;;;;;;;5107955;28;20019;-59
2023/09/26 07:18:43;;;;;;;46.40;20.00;;;;;;;;;;5106771;28;20034;-60
2023/09/26 07:21:10;;;;;;;37.15;19.13;;;;;;;;;;5089185;28;20487;-60
2023/09/26 07:23:36;;;;;;;39.28;18.15;;;;;;;;;;5066970;28;20047;-60
2023/09/26 07:26:16;;;;;;;39.00;18.38;;;;;;;;;;5107348;28;20059;-59
2023/09/26 07:28:44;;;;;;;27.23;14.55;;;;;;;;;;5105534;28;20044;-60
2023/09/26 07:31:11;;;;;;;28.20;15.48;;;;;;;;;;5107247;28;20518;-59
2023/09/26 07:33:38;;;;;;;27.42;14.98;;;;;;;;;;5104605;28;20426;-59
2023/09/26 07:36:04;;;;;;;27.33;15.48;;;;;;;;;;5108294;28;20435;-58
2023/09/26 07:38:34;;;;;;;24.98;14.15;;;;;;;;;;5102451;28;20406;-59
2023/09/26 07:41:01;;;;;;;24.75;13.35;;;;;;;;;;5105984;28;20039;-59
2023/09/26 07:43:33;;;;;;;23.88;13.23;;;;;;;;;;5105636;28;20035;-59
2023/09/26 07:46:05;;;;;;;20.27;13.30;;;;;;;;;;5086061;28;20442;-60
2023/09/26 07:48:32;;;;;;;19.48;12.93;;;;;;;;;;5104834;28;20035;-59
2023/09/26 07:50:58;;;;;;;20.83;12.95;;;;;;;;;;5106352;28;20039;-61
2023/09/26 07:53:24;;;;;;;18.83;12.43;;;;;;;;;;5105292;28;20035;-61
2023/09/26 07:55:51;;;;;;;19.98;13.30;;;;;;;;;;5105972;28;20395;-59
2023/09/26 07:58:17;;;;;;;22.17;13.43;;;;;;;;;;5105016;28;20050;-60
2023/09/26 08:00:43;;;;;;;19.52;12.27;;;;;;;;;;5105032;28;20035;-60
2023/09/26 08:03:10;;;;;;;18.70;12.23;;;;;;;;;;5105487;28;20027;-60
2023/09/26 08:05:36;;;;;;;17.45;11.43;;;;;;;;;;5105832;28;20032;-60
2023/09/26 08:08:04;;;;;;;18.85;13.10;;;;;;;;;;5104742;28;20035;-60
2023/09/26 08:10:31;;;;;;;16.30;10.95;;;;;;;;;;5107482;28;20035;-60
2023/09/26 08:12:59;;;;;;;17.45;11.45;;;;;;;;;;5090724;28;20048;-59
2023/09/26 08:15:25;;;;;;;18.77;11.60;;;;;;;;;;5091967;28;20414;-60
2023/09/26 08:17:51;;;;;;;16.65;11.65;;;;;;;;;;5110013;28;20087;-59
2023/09/26 08:20:17;;;;;;;16.65;11.15;;;;;;;;;;5111197;28;20039;-60
2023/09/26 08:22:43;;;;;;;19.52;11.65;;;;;;;;;;5084965;28;20035;-61
2023/09/26 08:25:09;;;;;;;19.67;11.50;;;;;;;;;;5108989;28;20035;-60
2023/09/26 08:27:36;;;;;;;17.48;12.00;;;;;;;;;;5091593;28;20487;-60
2023/09/26 08:30:03;;;;;;;20.83;12.27;;;;;;;;;;5110545;28;20098;-60
2023/09/26 08:32:30;;;;;;;15.90;11.23;;;;;;;;;;5091664;28;20038;-59
2023/09/26 08:34:57;;;;;;;19.40;11.98;;;;;;;;;;5107245;28;20442;-58
2023/09/26 08:37:23;;;;;;;15.25;10.73;;;;;;;;;;5107413;28;20486;-58
2023/09/26 08:39:51;;;;;;;18.88;12.05;;;;;;;;;;5110355;28;20530;-60
2023/09/26 08:42:26;;;;;;;18.75;11.38;;;;;;;;;;5108142;28;20541;-60
2023/09/26 08:44:53;;;;;;;15.68;11.68;;;;;;;;;;5108236;28;20028;-59
2023/09/26 08:47:23;;;;;;;18.45;11.20;;;;;;;;;;5109427;28;20035;-59
2023/09/26 08:49:52;;;;;;;17.42;12.23;;;;;;;;;;5108058;28;20024;-60
2023/09/26 08:52:18;;;;;;;;;;;;;;;;;;5109566;28;20487;-61
2023/09/26 08:54:44;;;;;;;15.90;11.05;;;;;;;;;;5088966;28;19961;-60
2023/09/26 08:57:11;;;;;;;15.55;9.82;;;;;;;;;;5107289;28;20406;-60
2023/09/26 08:59:39;;;;;;;15.05;10.10;;;;;;;;;;5090200;28;20044;-60
2023/09/26 09:02:05;;;;;;;15.85;9.85;;;;;;;;;;5089567;28;20043;-60
2023/09/26 09:04:32;;;;;;;14.15;9.82;;;;;;;;;;5106884;28;20036;-60
2023/09/26 09:07:04;;;;;;;14.13;10.57;;;;;;;;;;5103116;28;20038;-60
2023/09/26 09:09:31;;;;;;;13.05;9.77;;;;;;;;;;5105969;28;20038;-60
2023/09/26 09:11:57;;;;;;;12.43;9.02;;;;;;;;;;5106570;28;20043;-60
2023/09/26 09:14:33;;;;;;;16.52;9.63;;;;;;;;;;5104144;28;20054;-60
2023/09/26 09:17:00;;;;;;;11.45;8.50;;;;;;;;;;5106812;28;20423;-60
2023/09/26 09:19:45;;;;;;;12.38;8.93;;;;;;;;;;5100392;28;20032;-60
2023/09/26 09:22:29;;;;;;;13.90;9.10;;;;;;;;;;5101221;28;20047;-60
2023/09/26 09:24:56;;;;;;;15.60;9.10;;;;;;;;;;5104432;28;20035;-60
2023/09/26 09:27:30;;;;;;;11.95;8.73;;;;;;;;;;5090886;28;20408;-60
2023/09/26 09:30:12;;;;;;;11.98;9.05;;;;;;;;;;5106713;28;20043;-60
2023/09/26 09:32:44;;;;;;;11.07;8.07;;;;;;;;;;5106326;28;20047;-60
2023/09/26 09:35:14;;;;;;;11.38;8.18;;;;;;;;;;5100348;28;20023;-60
2023/09/26 09:37:50;;;;;;;12.70;7.78;;;;;;;;;;5107377;28;20540;-59
2023/09/26 09:40:19;;;;;;;9.27;7.78;;;;;;;;;;5104603;28;20039;-59
2023/09/26 09:42:49;;;;;;;10.32;7.75;;;;;;;;;;5105782;28;20054;-60
2023/09/26 09:45:17;;;;;;;7.57;6.40;;;;;;;;;;5105841;28;20039;-60
2023/09/26 09:47:47;;;;;;;9.90;6.57;;;;;;;;;;5107248;28;20040;-60
2023/09/26 09:50:15;;;;;;;8.57;6.15;;;;;;;;;;5087361;28;20032;-61
2023/09/26 09:52:44;;;;;;;10.23;6.47;;;;;;;;;;5103796;28;20039;-59
2023/09/26 09:55:19;;;;;;;7.57;6.32;;;;;;;;;;5107363;28;20023;-60
2023/09/26 09:57:50;;;;;;;7.88;6.53;;;;;;;;;;5106972;28;20049;-60
2023/09/26 10:00:19;;;;;;;8.43;6.22;;;;;;;;;;5104872;28;20051;-59
2023/09/26 10:02:50;;;;;;;6.55;5.82;;;;;;;;;;5107197;28;20088;-59
2023/09/26 10:05:19;;;;;;;8.07;5.55;;;;;;;;;;5105457;28;20056;-58
2023/09/26 10:07:46;;;;;;;8.45;5.65;;;;;;;;;;5107014;28;20034;-59
2023/09/26 10:10:14;;;;;;;6.68;5.38;;;;;;;;;;5105397;28;20028;-59
2023/09/26 10:12:41;;;;;;;7.45;5.20;;;;;;;;;;5089819;28;20410;-59
2023/09/26 10:15:13;;;;;;;7.45;5.20;;;;;;;;;;5099732;28;20034;-59
2023/09/26 10:17:41;;;;;;;8.77;4.97;;;;;;;;;;5107388;28;20031;-59
2023/09/26 10:20:11;;;;;;;7.05;4.75;;;;;;;;;;5107740;28;20052;-59
2023/09/26 10:22:41;;;;;;;5.88;5.28;;;;;;;;;;5108468;28;20101;-59
2023/09/26 10:25:08;;;;;;;5.72;4.43;;;;;;;;;;5100197;28;20502;-59
2023/09/26 10:27:34;;;;;;;9.82;5.45;;;;;;;;;;5105115;28;20043;-59
2023/09/26 10:30:01;;;;;;;5.45;4.28;;;;;;;;;;5088453;28;20547;-59
2023/09/26 10:32:32;;;;;;;8.77;5.10;;;;;;;;;;5106039;28;20050;-59
2023/09/26 10:35:01;;;;;;;5.57;4.55;;;;;;;;;;5106113;28;20047;-59
2023/09/26 10:37:28;;;;;;;5.10;4.60;;;;;;;;;;5087009;28;20031;-59
2023/09/26 10:39:54;;;;;;;5.50;4.05;;;;;;;;;;5106663;28;20036;-59
2023/09/26 10:42:24;;;;;;;7.95;5.85;;;;;;;;;;5107700;28;20028;-59
2023/09/26 10:44:51;;;;;;;7.28;4.45;;;;;;;;;;5104399;28;20050;-59
2023/09/26 10:47:20;;;;;;;8.02;4.68;;;;;;;;;;5105295;28;20032;-59
2023/09/26 10:49:46;;;;;;;6.20;4.40;;;;;;;;;;5087927;28;20502;-59
2023/09/26 10:52:13;;;;;;;5.38;3.88;;;;;;;;;;5105591;28;20469;-57
2023/09/26 10:54:41;;;;;;;5.90;3.80;;;;;;;;;;5105492;28;20031;-58
2023/09/26 10:57:08;;;;;;;4.22;3.50;;;;;;;;;;5102632;28;20024;-58
2023/09/26 10:59:35;;;;;;;7.03;3.70;;;;;;;;;;5105907;28;20043;-59
2023/09/26 11:02:03;;;;;;;5.90;3.78;;;;;;;;;;5106536;28;20028;-58
2023/09/26 11:04:31;;;;;;;3.70;3.40;;;;;;;;;;5101680;28;20046;-58
2023/09/26 11:07:05;;;;;;;5.40;3.33;;;;;;;;;;5102855;28;20657;-59
2023/09/26 11:09:37;;;;;;;5.30;3.33;;;;;;;;;;5107403;28;20035;-59
2023/09/26 11:12:04;;;;;;;4.18;3.78;;;;;;;;;;5090195;28;20035;-58
2023/09/26 11:14:32;;;;;;;4.45;3.50;;;;;;;;;;5106633;28;20054;-59
2023/09/26 11:16:58;;;;;;;6.75;3.25;;;;;;;;;;5106753;28;20042;-59
2023/09/26 11:19:27;;;;;;;5.65;3.50;;;;;;;;;;5108651;28;20042;-59
2023/09/26 11:21:56;;;;;;;;;;;;;;;;;;5107631;28;20042;-58
2023/09/26 11:24:28;;;;;;;6.30;3.60;;;;;;;;;;5105931;28;19926;-58
2023/09/26 11:27:01;;;;;;;3.80;3.30;;;;;;;;;;5088214;28;20050;-58
2023/09/26 11:29:27;;;;;;;4.28;3.08;;;;;;;;;;5105718;28;20058;-59
2023/09/26 11:31:56;;;;;;;4.72;2.97;;;;;;;;;;5105091;28;20043;-58
2023/09/26 11:34:23;;;;;;;4.95;3.10;;;;;;;;;;5104500;28;20055;-59
2023/09/26 11:36:55;;;;;;;5.18;3.30;;;;;;;;;;5104957;28;20386;-58
2023/09/26 11:39:24;;;;;;;5.18;3.42;;;;;;;;;;5088658;28;20417;-58
2023/09/26 11:42:07;;;;;;;5.60;3.20;;;;;;;;;;5086250;28;20031;-59
2023/09/26 11:44:35;;;;;;;5.07;2.92;;;;;;;;;;5104328;28;20028;-58
2023/09/26 11:47:03;;;;;;;3.95;3.10;;;;;;;;;;5109235;28;20048;-58
2023/09/26 11:49:30;;;;;;;5.40;2.83;;;;;;;;;;5111003;28;20032;-58
2023/09/26 11:51:56;;;;;;;3.25;2.92;;;;;;;;;;5108493;28;20048;-58
2023/09/26 11:54:23;;;;;;;4.13;2.80;;;;;;;;;;5089496;28;20032;-58
2023/09/26 11:56:51;;;;;;;3.60;2.88;;;;;;;;;;5109839;28;20023;-58
2023/09/26 11:59:17;;;;;;;;;;;;;;;;;;5110852;28;20040;-57
2023/09/26 12:01:43;;;;;;;4.55;3.38;;;;;;;;;;5083508;28;20292;-58
2023/09/26 12:04:12;;;;;;;3.92;3.17;;;;;;;;;;5104973;28;20044;-58
2023/09/26 12:06:41;;;;;;;3.40;2.78;;;;;;;;;;5104990;28;20048;-58
2023/09/26 12:09:17;;;;;;;7.55;3.10;;;;;;;;;;5102956;28;20035;-58
2023/09/26 12:11:44;;;;;;;4.57;2.72;;;;;;;;;;5092403;28;20027;-59
2023/09/26 12:14:10;;;;;;;3.28;2.85;;;;;;;;;;5110240;28;20032;-59
2023/09/26 12:16:36;;;;;;;3.13;2.70;;;;;;;;;;5111083;28;20047;-59
2023/09/26 12:19:02;;;;;;;3.78;2.70;;;;;;;;;;5111478;28;20039;-59
2023/09/26 12:21:29;;;;;;;8.45;2.70;;;;;;;;;;5092392;28;20058;-59
2023/09/26 12:23:56;;;;;;;3.65;2.58;;;;;;;;;;5107051;28;20048;-59
2023/09/26 12:26:22;;;;;;;5.20;3.28;;;;;;;;;;5109325;28;20027;-58
2023/09/26 12:28:48;;;;;;;2.83;2.60;;;;;;;;;;5082631;28;20414;-58
2023/09/26 12:31:15;;;;;;;3.72;2.60;;;;;;;;;;5109458;28;20034;-58
2023/09/26 12:33:41;;;;;;;3.83;2.50;;;;;;;;;;5106213;28;20210;-58
2023/09/26 12:36:07;;;;;;;3.05;2.55;;;;;;;;;;5108387;28;20039;-58
2023/09/26 12:38:33;;;;;;;4.43;2.60;;;;;;;;;;5105885;28;20039;-59
2023/09/26 12:40:59;;;;;;;3.83;2.40;;;;;;;;;;5108514;28;20047;-58
2023/09/26 12:43:25;;;;;;;3.97;2.22;;;;;;;;;;5106192;28;20067;-58
2023/09/26 12:45:51;;;;;;;4.97;2.60;;;;;;;;;;5108018;28;20055;-58
2023/09/26 12:48:19;;;;;;;5.28;2.58;;;;;;;;;;5090836;28;20515;-58
2023/09/26 12:50:45;;;;;;;4.88;2.50;;;;;;;;;;5107705;28;20044;-58
2023/09/26 12:53:11;;;;;;;3.45;2.58;;;;;;;;;;5087729;28;20043;-58
2023/09/26 12:55:37;;;;;;;3.88;2.50;;;;;;;;;;5107221;28;20046;-58
2023/09/26 12:58:03;;;;;;;3.05;2.58;;;;;;;;;;5108917;28;20050;-59
2023/09/26 13:00:30;;;;;;;3.45;2.72;;;;;;;;;;5108017;28;20040;-58
2023/09/26 13:02:56;;;;;;;4.57;2.75;;;;;;;;;;5105794;28;20052;-58
2023/09/26 13:05:23;;;;;;;3.60;2.50;;;;;;;;;;5107205;28;20040;-59
2023/09/26 13:07:50;;;;;;;4.00;2.28;;;;;;;;;;5108587;28;20031;-59
2023/09/26 13:10:16;;;;;;;3.15;2.70;;;;;;;;;;5110730;28;20034;-58
2023/09/26 13:12:42;;;;;;;3.80;2.80;;;;;;;;;;5107922;28;20046;-58
2023/09/26 13:15:08;;;;;;;4.00;2.90;;;;;;;;;;5108183;28;20502;-59
2023/09/26 13:17:35;;;;;;;4.35;2.78;;;;;;;;;;5110182;28;20026;-58
2023/09/26 13:20:05;;;;;;;5.82;2.50;;;;;;;;;;5107649;28;21361;-59
2023/09/26 13:22:31;;;;;;;3.20;2.70;;;;;;;;;;5108076;28;20043;-58
2023/09/26 13:24:57;;;;;;;5.90;2.60;;;;;;;;;;5107142;28;20039;-58
2023/09/26 13:27:23;;;;;;;3.63;2.20;;;;;;;;;;5105704;28;20047;-58
2023/09/26 13:29:49;;;;;;;4.95;2.63;;;;;;;;;;5107334;28;20035;-58
2023/09/26 13:32:15;;;;;;;3.35;2.72;;;;;;;;;;5091082;28;20039;-59
2023/09/26 13:34:43;;;;;;;6.20;2.80;;;;;;;;;;5104384;28;20044;-58
2023/09/26 13:37:09;;;;;;;4.22;2.80;;;;;;;;;;5100763;28;20043;-58
2023/09/26 13:39:35;;;;;;;4.20;2.75;;;;;;;;;;5083351;28;20035;-57
2023/09/26 13:42:01;;;;;;;5.32;2.42;;;;;;;;;;5084630;28;20406;-58
2023/09/26 13:44:27;;;;;;;6.22;2.70;;;;;;;;;;5086698;28;20526;-59
2023/09/26 13:46:53;;;;;;;4.05;2.78;;;;;;;;;;5107591;28;20418;-59
2023/09/26 13:49:19;;;;;;;5.57;2.47;;;;;;;;;;5108019;28;20043;-59
2023/09/26 13:51:45;;;;;;;2.92;2.67;;;;;;;;;;5089079;28;20058;-58
2023/09/26 13:54:12;;;;;;;2.88;2.50;;;;;;;;;;5079049;28;20046;-58
2023/09/26 13:56:39;;;;;;;3.45;2.60;;;;;;;;;;5108386;28;20024;-58
2023/09/26 13:59:05;;;;;;;4.03;2.60;;;;;;;;;;5108468;28;20487;-59
2023/09/26 14:01:32;;;;;;;5.75;2.45;;;;;;;;;;5107027;28;20040;-58
2023/09/26 14:03:58;;;;;;;4.43;2.40;;;;;;;;;;5081693;28;20044;-58
2023/09/26 14:06:24;;;;;;;5.45;2.78;;;;;;;;;;5108781;28;20418;-59
2023/09/26 14:08:51;;;;;;;5.30;3.00;;;;;;;;;;5107682;28;20525;-59
2023/09/26 14:11:18;;;;;;;6.63;2.70;;;;;;;;;;5109698;28;20031;-58
2023/09/26 14:13:44;;;;;;;4.28;2.33;;;;;;;;;;5107040;28;20513;-59
2023/09/26 14:16:11;;;;;;;6.05;2.92;;;;;;;;;;5089907;28;20372;-60
2023/09/26 14:18:38;;;;;;;4.65;3.05;;;;;;;;;;5108487;28;20221;-60
2023/09/26 14:21:09;;;;;;;11.43;3.20;;;;;;;;;;5106954;28;20042;-60
2023/09/26 14:23:35;;;;;;;4.57;2.90;;;;;;;;;;5104467;28;20392;-60
2023/09/26 14:26:01;;;;;;;5.57;2.83;;;;;;;;;;5106730;28;20031;-61
2023/09/26 14:28:28;;;;;;;5.88;2.92;;;;;;;;;;5106775;28;20387;-60
2023/09/26 14:30:54;;;;;;;4.45;2.55;;;;;;;;;;5105787;28;20055;-61